createdAt,value
2022-11-28T00:01:29.407Z,39.13
2022-11-28T00:03:57.446Z,41.58
2022-11-28T00:06:27.322Z,44.53
2022-11-28T00:08:55.811Z,46.55
2022-11-28T00:11:25.539Z,44.65
2022-11-28T00:13:54.551Z,42.08
2022-11-28T00:16:23.338Z,47.33
2022-11-28T00:18:53.332Z,42.65
2022-11-28T00:21:21.289Z,45.05
2022-11-28T00:23:53.415Z,44.97
2022-11-28T00:26:34.183Z,44.83
2022-11-28T00:29:03.730Z,51.65
2022-11-28T00:31:35.859Z,45.38
2022-11-28T00:34:03.743Z,44.00
2022-11-28T00:36:34.451Z,53.55
2022-11-28T00:39:02.283Z,47.10
2022-11-28T00:41:31.222Z,48.33
2022-11-28T00:43:59.007Z,46.67
2022-11-28T00:46:27.192Z,50.47
2022-11-28T00:49:14.601Z,45.17
2022-11-28T00:51:43.454Z,47.90
2022-11-28T00:54:11.440Z,48.15
2022-11-28T00:56:40.464Z,48.92
2022-11-28T00:59:08.907Z,44.53
2022-11-28T01:01:40.367Z,46.40
2022-11-28T01:04:11.157Z,45.20
2022-11-28T01:06:41.445Z,46.22
2022-11-28T01:09:13.827Z,52.53
2022-11-28T01:11:43.159Z,54.50
2022-11-28T01:14:12.812Z,47.05
2022-11-28T01:16:40.875Z,49.97
2022-11-28T01:19:08.994Z,56.58
2022-11-28T01:21:36.991Z,55.17
2022-11-28T01:24:04.971Z,51.65
2022-11-28T01:26:33.159Z,56.72
2022-11-28T01:29:01.191Z,59.90
2022-11-28T01:31:30.570Z,50.00
2022-11-28T01:33:59.257Z,53.53
2022-11-28T01:36:27.360Z,53.65
2022-11-28T01:38:54.900Z,58.78
2022-11-28T01:41:26.414Z,59.53
2022-11-28T01:44:07.084Z,63.42
2022-11-28T01:46:36.386Z,54.08
2022-11-28T01:49:22.921Z,47.20
2022-11-28T01:52:00.297Z,53.15
2022-11-28T01:54:29.883Z,60.08
2022-11-28T01:57:02.129Z,56.28
2022-11-28T01:59:37.323Z,51.33
2022-11-28T02:02:13.594Z,57.92
2022-11-28T02:04:42.706Z,50.20
2022-11-28T02:07:10.874Z,57.58
2022-11-28T02:09:38.421Z,54.78
2022-11-28T02:12:09.011Z,51.72
2022-11-28T02:14:48.440Z,50.15
2022-11-28T02:17:36.207Z,50.65
2022-11-28T02:20:22.431Z,49.30
2022-11-28T02:23:07.950Z,49.63
2022-11-28T02:26:06.370Z,51.65
2022-11-28T02:28:55.316Z,49.50
2022-11-28T02:31:56.464Z,54.20
2022-11-28T02:34:31.987Z,46.15
2022-11-28T02:37:21.288Z,45.88
2022-11-28T02:40:23.380Z,54.15
2022-11-28T02:43:05.477Z,53.30
2022-11-28T02:45:48.100Z,58.53
2022-11-28T02:48:23.072Z,55.65
2022-11-28T02:51:14.973Z,54.42
2022-11-28T02:53:45.911Z,58.08
2022-11-28T02:56:14.127Z,57.10
2022-11-28T02:58:42.961Z,54.63
2022-11-28T03:01:47.773Z,57.60
2022-11-28T03:04:36.206Z,71.00
2022-11-28T03:07:33.240Z,58.35
2022-11-28T03:10:48.167Z,60.67
2022-11-28T03:13:39.885Z,61.50
2022-11-28T03:16:24.880Z,65.82
2022-11-28T03:19:28.479Z,62.88
2022-11-28T03:22:28.367Z,56.50
2022-11-28T03:25:11.213Z,62.65
2022-11-28T03:27:54.502Z,55.45
2022-11-28T03:30:34.518Z,59.20
2022-11-28T03:33:03.716Z,67.43
2022-11-28T03:35:38.134Z,76.97
2022-11-28T03:38:20.443Z,63.03
2022-11-28T03:40:53.423Z,56.95
2022-11-28T03:43:31.438Z,50.65
2022-11-28T03:46:05.522Z,59.33
2022-11-28T03:48:39.881Z,60.63
2022-11-28T03:51:33.173Z,55.60
2022-11-28T03:54:04.567Z,54.28
2022-11-28T03:56:32.013Z,48.20
2022-11-28T03:59:09.768Z,50.10
2022-11-28T04:01:49.671Z,53.55
2022-11-28T04:07:08.174Z,50.55
2022-11-28T04:09:42.866Z,59.38
2022-11-28T04:12:34.668Z,50.25
2022-11-28T04:17:56.362Z,49.88
2022-11-28T04:20:39.362Z,45.00
2022-11-28T04:23:12.641Z,44.92
2022-11-28T04:25:46.903Z,51.20
2022-11-28T04:28:20.488Z,39.72
2022-11-28T04:30:51.355Z,42.70
2022-11-28T04:33:23.099Z,36.95
2022-11-28T04:35:53.879Z,33.70
2022-11-28T04:38:24.889Z,28.60
2022-11-28T04:41:12.552Z,22.50
2022-11-28T04:43:45.075Z,16.02
2022-11-28T04:46:21.798Z,16.92
2022-11-28T04:48:49.577Z,13.27
2022-11-28T04:51:24.569Z,15.85
2022-11-28T04:54:14.948Z,13.55
2022-11-28T04:56:49.918Z,13.05
2022-11-28T04:59:22.396Z,15.13
2022-11-28T05:01:50.449Z,16.60
2022-11-28T05:04:18.714Z,16.25
2022-11-28T05:06:46.457Z,19.65
2022-11-28T05:09:14.569Z,15.07
2022-11-28T05:14:11.163Z,18.00
2022-11-28T05:16:38.903Z,14.63
2022-11-28T05:19:06.685Z,11.98
2022-11-28T05:21:34.240Z,21.27
2022-11-28T05:24:01.858Z,14.35
2022-11-28T05:26:32.496Z,14.07
2022-11-28T05:29:02.023Z,12.63
2022-11-28T05:31:31.300Z,16.73
2022-11-28T05:33:59.210Z,16.23
2022-11-28T05:36:26.671Z,15.52
2022-11-28T05:38:54.194Z,14.77
2022-11-28T05:41:27.530Z,18.67
2022-11-28T05:43:56.586Z,15.75
2022-11-28T05:46:25.961Z,13.07
2022-11-28T05:48:53.527Z,11.20
2022-11-28T05:51:21.004Z,15.85
2022-11-28T05:53:48.920Z,10.95
2022-11-28T05:56:19.490Z,13.75
2022-11-28T05:58:47.067Z,11.75
2022-11-28T06:01:17.862Z,10.40
2022-11-28T06:03:46.205Z,10.75
2022-11-28T06:06:15.952Z,10.38
2022-11-28T06:08:44.439Z,10.85
2022-11-28T06:11:14.687Z,13.85
2022-11-28T06:13:43.814Z,9.95
2022-11-28T06:16:19.968Z,13.18
2022-11-28T06:18:48.183Z,10.52
2022-11-28T06:21:16.309Z,12.55
2022-11-28T06:23:43.888Z,12.43
2022-11-28T06:26:13.968Z,10.25
2022-11-28T06:28:41.917Z,13.50
2022-11-28T06:31:21.001Z,11.90
2022-11-28T06:33:49.779Z,10.40
2022-11-28T06:36:19.385Z,11.43
2022-11-28T06:38:47.953Z,11.63
2022-11-28T06:41:18.545Z,12.90
2022-11-28T06:43:46.327Z,14.00
2022-11-28T06:46:17.004Z,14.88
2022-11-28T06:48:45.941Z,14.25
2022-11-28T06:51:14.507Z,16.48
2022-11-28T06:53:42.103Z,13.52
2022-11-28T06:56:16.230Z,16.33
2022-11-28T06:58:44.686Z,17.65
2022-11-28T07:01:15.938Z,17.25
2022-11-28T07:03:44.804Z,18.40
2022-11-28T07:06:13.739Z,18.98
2022-11-28T07:08:41.943Z,19.90
2022-11-28T07:11:21.475Z,24.35
2022-11-28T07:16:23.396Z,22.20
2022-11-28T07:18:52.324Z,22.20
2022-11-28T07:21:20.866Z,21.05
2022-11-28T07:23:49.257Z,20.40
2022-11-28T07:26:18.906Z,21.90
2022-11-28T07:28:48.380Z,22.33
2022-11-28T07:31:19.476Z,19.48
2022-11-28T07:33:49.323Z,25.13
2022-11-28T07:36:23.219Z,22.05
2022-11-28T07:38:56.687Z,24.48
2022-11-28T07:41:26.922Z,24.33
2022-11-28T07:44:02.216Z,22.98
2022-11-28T07:46:32.106Z,22.77
2022-11-28T07:49:00.765Z,26.88
2022-11-28T07:51:31.362Z,23.92
2022-11-28T07:54:02.563Z,25.55
2022-11-28T07:57:04.090Z,25.08
2022-11-28T07:59:20.821Z,25.67
2022-11-28T08:02:43.676Z,30.90
2022-11-28T08:05:23.646Z,33.33
2022-11-28T08:07:52.827Z,37.67
2022-11-28T08:10:20.561Z,37.05
2022-11-28T08:13:07.972Z,42.67
2022-11-28T08:15:37.937Z,37.45
2022-11-28T08:18:06.906Z,38.70
2022-11-28T08:20:34.557Z,38.40
2022-11-28T08:23:02.263Z,37.05
2022-11-28T08:25:29.841Z,46.20
2022-11-28T08:27:57.444Z,41.28
2022-11-28T08:30:25.067Z,43.17
2022-11-28T08:32:52.848Z,41.80
2022-11-28T08:35:20.637Z,40.30
2022-11-28T08:37:48.242Z,33.63
2022-11-28T08:40:16.097Z,51.20
2022-11-28T08:42:43.790Z,44.35
2022-11-28T08:45:12.166Z,45.47
2022-11-28T08:47:39.921Z,50.92
2022-11-28T08:50:08.085Z,44.22
2022-11-28T08:52:36.167Z,40.60
2022-11-28T08:55:04.066Z,41.20
2022-11-28T08:57:32.229Z,42.25
2022-11-28T09:00:00.096Z,43.75
2022-11-28T09:02:27.681Z,48.97
2022-11-28T09:04:56.083Z,37.70
2022-11-28T09:07:23.934Z,43.47
2022-11-28T09:09:51.724Z,35.13
2022-11-28T09:12:19.707Z,33.72
2022-11-28T09:14:47.645Z,25.25
2022-11-28T09:17:18.270Z,29.50
2022-11-28T09:19:46.017Z,29.67
2022-11-28T09:22:13.552Z,24.65
2022-11-28T09:24:41.000Z,24.02
2022-11-28T09:27:10.709Z,21.02
2022-11-28T09:29:38.287Z,23.23
2022-11-28T09:32:06.161Z,19.92
2022-11-28T09:34:34.061Z,20.80
2022-11-28T09:37:04.894Z,21.13
2022-11-28T09:39:50.315Z,24.75
2022-11-28T09:42:44.157Z,18.75
2022-11-28T09:45:23.661Z,20.63
2022-11-28T09:47:59.546Z,19.40
2022-11-28T09:50:33.027Z,16.55
2022-11-28T09:53:22.743Z,18.20
2022-11-28T09:58:28.899Z,18.42
2022-11-28T10:01:12.276Z,18.33
2022-11-28T10:03:48.697Z,20.88
2022-11-28T10:06:23.819Z,21.08
2022-11-28T10:08:54.532Z,21.27
2022-11-28T10:11:45.386Z,20.98
2022-11-28T10:14:21.914Z,18.42
2022-11-28T10:17:01.861Z,19.92
2022-11-28T10:19:56.433Z,19.30
2022-11-28T10:22:48.468Z,18.92
2022-11-28T10:25:38.858Z,21.63
2022-11-28T10:28:13.655Z,27.73
2022-11-28T10:30:46.623Z,27.08
2022-11-28T10:33:33.937Z,26.58
2022-11-28T10:36:03.345Z,32.70
2022-11-28T10:38:34.843Z,34.25
2022-11-28T10:41:12.908Z,33.47
2022-11-28T10:44:02.062Z,36.35
2022-11-28T10:49:33.373Z,34.72
2022-11-28T10:52:15.494Z,33.38
2022-11-28T10:54:49.927Z,38.65
2022-11-28T10:57:20.426Z,36.92
2022-11-28T10:59:47.954Z,39.63
2022-11-28T11:02:32.757Z,37.53
2022-11-28T11:05:01.470Z,37.28
2022-11-28T11:07:31.845Z,43.70
2022-11-28T11:10:15.322Z,43.00
2022-11-28T11:12:44.376Z,46.92
2022-11-28T11:15:32.133Z,48.70
2022-11-28T11:18:19.772Z,44.22
2022-11-28T11:20:47.368Z,38.88
2022-11-28T11:23:22.242Z,44.70
2022-11-28T11:25:53.795Z,39.20
2022-11-28T11:28:54.942Z,43.97
2022-11-28T11:31:32.700Z,45.83
2022-11-28T11:34:12.902Z,48.67
2022-11-28T11:36:40.766Z,45.45
2022-11-28T11:39:11.469Z,39.45
2022-11-28T11:41:41.583Z,37.83
2022-11-28T11:44:14.899Z,42.33
2022-11-28T11:46:56.227Z,40.15
2022-11-28T11:49:36.290Z,42.42
2022-11-28T11:52:13.501Z,38.40
2022-11-28T11:55:11.692Z,37.22
2022-11-28T11:57:44.657Z,33.75
2022-11-28T12:00:19.790Z,38.25
2022-11-28T12:03:25.213Z,36.95
2022-11-28T12:06:29.120Z,34.13
2022-11-28T12:10:07.116Z,39.47
2022-11-28T12:12:37.380Z,42.90
2022-11-28T12:15:15.602Z,36.95
2022-11-28T12:18:20.468Z,40.65
2022-11-28T12:21:13.541Z,38.22
2022-11-28T12:23:59.162Z,40.47
2022-11-28T12:26:36.670Z,39.70
2022-11-28T12:29:32.006Z,43.55
2022-11-28T12:32:28.394Z,42.55
2022-11-28T12:35:22.227Z,39.90
2022-11-28T12:38:11.701Z,39.25
2022-11-28T12:41:09.596Z,38.83
2022-11-28T12:44:12.600Z,41.67
2022-11-28T12:46:51.842Z,47.42
2022-11-28T12:49:45.398Z,47.75
2022-11-28T12:52:42.194Z,42.90
2022-11-28T12:55:56.595Z,51.58
2022-11-28T12:58:33.831Z,43.03
2022-11-28T13:01:26.238Z,45.63
2022-11-28T13:04:41.596Z,51.13
2022-11-28T13:07:18.493Z,52.58
2022-11-28T13:10:21.904Z,54.38
2022-11-28T13:13:05.668Z,55.60
2022-11-28T13:15:39.162Z,59.70
2022-11-28T13:18:32.803Z,57.15
2022-11-28T13:21:11.556Z,53.17
2022-11-28T13:24:07.532Z,48.45
2022-11-28T13:26:48.800Z,51.47
2022-11-28T13:29:31.773Z,54.22
2022-11-28T13:32:35.586Z,49.13
2022-11-28T13:35:04.903Z,56.25
2022-11-28T13:44:46.661Z,49.05
2022-11-28T13:47:23.775Z,45.15
2022-11-28T13:49:51.344Z,44.85
2022-11-28T13:52:18.857Z,42.55
2022-11-28T13:54:54.576Z,51.53
2022-11-28T13:57:37.328Z,50.65
2022-11-28T14:00:29.730Z,41.17
2022-11-28T14:03:00.095Z,39.28
2022-11-28T14:05:38.507Z,39.20
2022-11-28T14:08:07.405Z,39.63
2022-11-28T14:10:40.832Z,38.30
2022-11-28T14:13:23.020Z,38.47
2022-11-28T14:16:09.699Z,40.05
2022-11-28T14:19:25.694Z,35.22
2022-11-28T14:22:24.672Z,39.40
2022-11-28T14:25:23.266Z,39.40
2022-11-28T14:27:57.205Z,39.80
2022-11-28T14:30:34.488Z,42.97
2022-11-28T14:33:15.898Z,45.08
2022-11-28T14:40:23.475Z,66.57
2022-11-28T14:43:26.400Z,38.55
2022-11-28T14:46:23.057Z,37.28
2022-11-28T14:48:59.880Z,42.88
2022-11-28T14:51:46.183Z,46.88
2022-11-28T14:54:29.395Z,43.42
2022-11-28T14:56:59.975Z,32.50
2022-11-28T14:59:34.516Z,38.28
2022-11-28T15:02:25.693Z,40.95
2022-11-28T15:05:35.101Z,37.67
2022-11-28T15:08:21.476Z,44.22
2022-11-28T15:11:13.762Z,42.72
2022-11-28T15:13:50.996Z,48.88
2022-11-28T15:16:21.590Z,38.53
2022-11-28T15:18:54.039Z,47.17
2022-11-28T15:21:25.149Z,44.03
2022-11-28T15:23:53.013Z,38.47
2022-11-28T15:26:29.267Z,40.92
2022-11-28T15:29:20.958Z,34.72
2022-11-28T15:31:51.886Z,36.72
2022-11-28T15:34:28.499Z,35.95
2022-11-28T15:37:06.614Z,38.63
2022-11-28T15:39:39.939Z,41.03
2022-11-28T15:42:22.579Z,35.55
2022-11-28T15:45:06.799Z,40.63
2022-11-28T15:47:35.293Z,35.25
2022-11-28T15:50:17.255Z,32.88
2022-11-28T15:53:01.427Z,35.35
2022-11-28T15:55:33.768Z,30.42
2022-11-28T15:58:32.049Z,32.25
2022-11-28T16:01:24.376Z,32.83
2022-11-28T16:04:15.231Z,41.47
2022-11-28T16:06:49.221Z,35.05
2022-11-28T16:09:20.171Z,37.05
2022-11-28T16:11:51.926Z,33.70
2022-11-28T16:14:29.365Z,28.23
2022-11-28T16:17:07.160Z,30.20
2022-11-28T16:19:37.665Z,25.83
2022-11-28T16:22:09.504Z,29.50
2022-11-28T16:24:43.098Z,30.55
2022-11-28T16:27:37.583Z,29.50
2022-11-28T16:30:26.547Z,25.63
2022-11-28T16:32:56.027Z,29.55
2022-11-28T16:35:32.302Z,25.42
2022-11-28T16:38:24.305Z,26.15
2022-11-28T16:40:59.194Z,25.33
2022-11-28T16:43:39.475Z,26.15
2022-11-28T16:46:17.089Z,22.92
2022-11-28T16:48:59.141Z,25.60
2022-11-28T16:51:26.646Z,24.65
2022-11-28T16:53:55.773Z,22.45
2022-11-28T16:56:24.431Z,23.90
2022-11-28T16:58:59.025Z,29.17
2022-11-28T17:01:27.871Z,26.48
2022-11-28T17:03:57.367Z,25.52
2022-11-28T17:06:34.098Z,27.70
2022-11-28T17:09:02.198Z,21.00
2022-11-28T17:11:33.521Z,20.13
2022-11-28T17:14:02.717Z,20.77
2022-11-28T17:16:33.521Z,20.08
2022-11-28T17:20:28.423Z,19.92
2022-11-28T17:22:59.152Z,18.38
2022-11-28T17:25:26.724Z,22.00
2022-11-28T17:27:54.350Z,17.25
2022-11-28T17:30:22.187Z,18.70
2022-11-28T17:32:52.161Z,18.48
2022-11-28T17:35:25.238Z,19.35
2022-11-28T17:37:52.891Z,20.65
2022-11-28T17:40:36.821Z,23.83
2022-11-28T17:43:05.093Z,22.65
2022-11-28T17:45:35.873Z,20.55
2022-11-28T17:48:03.647Z,21.08
2022-11-28T17:50:31.432Z,19.75
2022-11-28T17:52:58.968Z,21.27
2022-11-28T17:55:26.461Z,21.73
2022-11-28T17:57:54.271Z,23.02
2022-11-28T18:00:22.090Z,21.77
2022-11-28T18:02:49.639Z,20.75
2022-11-28T18:05:17.354Z,22.88
2022-11-28T18:07:45.234Z,22.23
2022-11-28T18:10:12.805Z,24.95
2022-11-28T18:12:40.454Z,22.55
2022-11-28T18:15:10.566Z,25.73
2022-11-28T18:17:38.963Z,21.20
2022-11-28T18:20:07.305Z,20.15
2022-11-28T18:22:35.037Z,20.40
2022-11-28T18:25:02.973Z,24.27
2022-11-28T18:27:30.951Z,24.75
2022-11-28T18:29:58.911Z,26.35
2022-11-28T18:32:26.562Z,22.10
2022-11-28T18:34:54.928Z,25.00
2022-11-28T18:37:22.496Z,22.60
2022-11-28T18:39:49.996Z,22.38
2022-11-28T18:42:18.181Z,22.17
2022-11-28T18:44:47.423Z,19.30
2022-11-28T18:47:15.228Z,28.35
2022-11-28T18:49:43.100Z,24.67
2022-11-28T18:52:11.371Z,24.30
2022-11-28T18:54:38.963Z,22.65
2022-11-28T18:57:08.018Z,23.00
2022-11-28T18:59:35.876Z,24.05
2022-11-28T19:02:03.664Z,21.70
2022-11-28T19:04:31.505Z,24.92
2022-11-28T19:07:00.533Z,21.40
2022-11-28T19:09:28.063Z,19.05
2022-11-28T19:11:55.897Z,24.90
2022-11-28T19:14:24.293Z,21.75
2022-11-28T19:16:54.153Z,20.42
2022-11-28T19:21:50.281Z,19.60
2022-11-28T19:24:19.349Z,19.38
2022-11-28T19:26:47.115Z,21.15
2022-11-28T19:29:15.972Z,18.83
2022-11-28T19:31:43.497Z,20.38
2022-11-28T19:36:45.391Z,19.40
2022-11-28T19:39:19.157Z,21.42
2022-11-28T19:41:47.507Z,19.83
2022-11-28T19:44:15.772Z,22.40
2022-11-28T19:46:43.993Z,19.67
2022-11-28T19:49:20.177Z,17.65
2022-11-28T19:51:50.673Z,21.13
2022-11-28T19:54:22.210Z,22.50
2022-11-28T19:56:50.687Z,23.88
2022-11-28T19:59:19.423Z,19.35
2022-11-28T20:01:49.977Z,17.55
2022-11-28T20:04:20.393Z,15.50
2022-11-28T20:06:48.838Z,17.30
2022-11-28T20:09:16.453Z,24.33
2022-11-28T20:11:45.258Z,19.10
2022-11-28T20:14:16.847Z,15.68
2022-11-28T20:16:46.263Z,17.75
2022-11-28T20:19:16.454Z,16.15
2022-11-28T20:21:46.471Z,19.20
2022-11-28T20:26:44.535Z,18.73
2022-11-28T20:29:15.530Z,17.30
2022-11-28T20:31:45.802Z,17.15
2022-11-28T20:34:18.037Z,14.68
2022-11-28T20:39:14.537Z,17.65
2022-11-28T20:41:42.102Z,13.38
2022-11-28T20:44:10.331Z,14.50
2022-11-28T20:46:38.303Z,15.73
2022-11-28T20:49:07.221Z,18.83
2022-11-28T20:51:35.898Z,16.63
2022-11-28T20:54:05.377Z,17.00
2022-11-28T20:56:57.963Z,18.05
2022-11-28T20:59:24.138Z,17.67
2022-11-28T21:01:51.867Z,15.38
2022-11-28T21:04:19.678Z,15.32
2022-11-28T21:06:49.117Z,14.13
2022-11-28T21:12:02.833Z,16.33
2022-11-28T21:14:31.048Z,16.40
2022-11-28T21:16:59.618Z,15.50
2022-11-28T21:19:27.421Z,15.02
2022-11-28T21:21:55.237Z,18.45
2022-11-28T21:24:22.889Z,21.40
2022-11-28T21:26:53.855Z,17.55
2022-11-28T21:29:23.763Z,20.35
2022-11-28T21:31:52.216Z,18.23
2022-11-28T21:34:19.880Z,17.67
2022-11-28T21:36:47.783Z,15.25
2022-11-28T21:39:18.864Z,17.70
2022-11-28T21:41:46.887Z,14.93
2022-11-28T21:44:14.556Z,15.52
2022-11-28T21:46:42.204Z,14.20
2022-11-28T21:49:10.191Z,20.65
2022-11-28T21:51:40.459Z,16.10
2022-11-28T21:54:10.971Z,18.23
2022-11-28T21:56:38.677Z,14.80
2022-11-28T21:59:06.518Z,28.98
2022-11-28T22:01:34.283Z,19.83
2022-11-28T22:04:03.021Z,21.40
2022-11-28T22:06:32.993Z,20.73
2022-11-28T22:09:08.718Z,16.00
2022-11-28T22:11:39.697Z,15.98
2022-11-28T22:14:07.454Z,16.67
2022-11-28T22:16:35.036Z,16.13
2022-11-28T22:19:05.054Z,14.65
2022-11-28T22:21:55.311Z,19.02
2022-11-28T22:24:24.166Z,16.17
2022-11-28T22:26:53.356Z,16.45
2022-11-28T22:29:21.951Z,19.02
2022-11-28T22:31:49.705Z,16.33
2022-11-28T22:34:18.652Z,15.85
2022-11-28T22:36:46.259Z,17.88
2022-11-28T22:39:13.835Z,16.52
2022-11-28T22:41:43.438Z,16.58
2022-11-28T22:44:12.026Z,16.60
2022-11-28T22:46:39.622Z,16.15
2022-11-28T22:49:09.206Z,15.20
2022-11-28T22:51:39.339Z,13.30
2022-11-28T22:54:07.167Z,13.80
2022-11-28T22:56:35.141Z,14.75
2022-11-28T22:59:05.187Z,15.80
2022-11-28T23:01:34.477Z,15.77
2022-11-28T23:04:02.959Z,15.23
2022-11-28T23:06:34.437Z,13.23
2022-11-28T23:09:06.339Z,17.13
2022-11-28T23:11:36.014Z,18.40
2022-11-28T23:14:05.960Z,18.65
2022-11-28T23:16:39.809Z,16.48
2022-11-28T23:19:14.675Z,16.58
2022-11-28T23:21:44.720Z,16.88
2022-11-28T23:24:21.048Z,15.05
2022-11-28T23:26:50.930Z,18.40
2022-11-28T23:29:19.375Z,17.95
2022-11-28T23:31:47.846Z,17.98
2022-11-28T23:34:16.474Z,14.45
2022-11-28T23:36:46.630Z,14.63
2022-11-28T23:39:20.215Z,17.88
2022-11-28T23:41:48.319Z,20.35
2022-11-28T23:44:18.039Z,19.40
2022-11-28T23:46:46.642Z,15.85
2022-11-28T23:49:14.652Z,18.67
2022-11-28T23:51:42.577Z,17.75
2022-11-28T23:54:11.324Z,15.38
2022-11-28T23:56:41.090Z,15.20
2022-11-28T23:59:10.696Z,14.73
